sensor_id;sensor_type;location;lat;lon;timestamp;P1;durP1;ratioP1;P2;durP2;ratioP2
32242;SDS011;18731;42.830;24.390;2023-09-19T03:01:30;10.18;;;6.72;;
32242;SDS011;18731;42.830;24.390;2023-09-19T03:03:56;12.45;;;7.22;;
32242;SDS011;18731;42.830;24.390;2023-09-19T03:06:22;13.13;;;7.35;;
32242;SDS011;18731;42.830;24.390;2023-09-19T03:08:49;9.70;;;6.85;;
32242;SDS011;18731;42.830;24.390;2023-09-19T03:11:17;15.95;;;7.05;;
32242;SDS011;18731;42.830;24.390;2023-09-19T03:13:50;26.80;;;6.68;;
32242;SDS011;18731;42.830;24.390;2023-09-19T03:16:19;12.98;;;6.78;;
32242;SDS011;18731;42.830;24.390;2023-09-19T03:18:50;10.90;;;7.78;;
32242;SDS011;18731;42.830;24.390;2023-09-19T03:21:16;13.13;;;7.75;;
32242;SDS011;18731;42.830;24.390;2023-09-19T03:23:43;18.92;;;8.05;;
32242;SDS011;18731;42.830;24.390;2023-09-19T03:26:12;11.48;;;7.60;;
32242;SDS011;18731;42.830;24.390;2023-09-19T03:28:39;10.73;;;6.95;;
32242;SDS011;18731;42.830;24.390;2023-09-19T03:31:06;11.18;;;6.90;;
32242;SDS011;18731;42.830;24.390;2023-09-19T03:33:32;11.48;;;7.53;;
32242;SDS011;18731;42.830;24.390;2023-09-19T03:35:59;15.27;;;7.60;;
32242;SDS011;18731;42.830;24.390;2023-09-19T03:38:26;8.80;;;6.57;;
32242;SDS011;18731;42.830;24.390;2023-09-19T03:40:54;12.57;;;6.32;;
32242;SDS011;18731;42.830;24.390;2023-09-19T03:43:20;10.35;;;6.90;;
32242;SDS011;18731;42.830;24.390;2023-09-19T03:45:45;11.40;;;7.43;;
32242;SDS011;18731;42.830;24.390;2023-09-19T03:48:16;16.50;;;6.80;;
32242;SDS011;18731;42.830;24.390;2023-09-19T03:50:42;15.88;;;7.30;;
32242;SDS011;18731;42.830;24.390;2023-09-19T03:53:09;16.52;;;7.57;;
32242;SDS011;18731;42.830;24.390;2023-09-19T03:55:35;12.10;;;6.97;;
32242;SDS011;18731;42.830;24.390;2023-09-19T03:58:01;10.93;;;6.53;;
32242;SDS011;18731;42.830;24.390;2023-09-19T04:00:27;17.42;;;6.88;;
32242;SDS011;18731;42.830;24.390;2023-09-19T04:02:55;12.85;;;7.65;;
32242;SDS011;18731;42.830;24.390;2023-09-19T04:05:24;13.18;;;8.27;;
32242;SDS011;18731;42.830;24.390;2023-09-19T04:07:50;16.05;;;7.60;;
32242;SDS011;18731;42.830;24.390;2023-09-19T04:10:16;14.98;;;7.53;;
32242;SDS011;18731;42.830;24.390;2023-09-19T04:12:51;13.07;;;7.22;;
32242;SDS011;18731;42.830;24.390;2023-09-19T04:15:18;13.73;;;6.95;;
32242;SDS011;18731;42.830;24.390;2023-09-19T04:17:44;13.65;;;7.50;;
32242;SDS011;18731;42.830;24.390;2023-09-19T04:20:10;10.73;;;7.20;;
32242;SDS011;18731;42.830;24.390;2023-09-19T04:22:37;13.70;;;8.10;;
32242;SDS011;18731;42.830;24.390;2023-09-19T04:25:04;11.93;;;8.10;;
32242;SDS011;18731;42.830;24.390;2023-09-19T04:27:32;15.23;;;8.05;;
32242;SDS011;18731;42.830;24.390;2023-09-19T04:29:58;12.23;;;7.35;;
32242;SDS011;18731;42.830;24.390;2023-09-19T04:32:27;25.10;;;16.10;;
32242;SDS011;18731;42.830;24.390;2023-09-19T04:34:54;11.70;;;8.48;;
32242;SDS011;18731;42.830;24.390;2023-09-19T04:37:20;18.33;;;7.47;;
32242;SDS011;18731;42.830;24.390;2023-09-19T04:39:47;22.60;;;9.95;;
32242;SDS011;18731;42.830;24.390;2023-09-19T04:42:13;17.35;;;7.75;;
32242;SDS011;18731;42.830;24.390;2023-09-19T04:44:40;12.85;;;7.95;;
32242;SDS011;18731;42.830;24.390;2023-09-19T04:47:05;12.65;;;7.93;;
32242;SDS011;18731;42.830;24.390;2023-09-19T04:49:31;18.38;;;7.47;;
32242;SDS011;18731;42.830;24.390;2023-09-19T04:51:57;12.20;;;7.63;;
32242;SDS011;18731;42.830;24.390;2023-09-19T04:54:23;20.77;;;7.60;;
32242;SDS011;18731;42.830;24.390;2023-09-19T04:56:48;16.25;;;7.10;;
32242;SDS011;18731;42.830;24.390;2023-09-19T04:59:14;11.05;;;8.55;;
32242;SDS011;18731;42.830;24.390;2023-09-19T05:01:40;16.73;;;9.98;;
32242;SDS011;18731;42.830;24.390;2023-09-19T05:04:06;20.55;;;11.27;;
32242;SDS011;18731;42.830;24.390;2023-09-19T05:06:32;17.05;;;11.00;;
32242;SDS011;18731;42.830;24.390;2023-09-19T05:08:59;15.63;;;8.95;;
32242;SDS011;18731;42.830;24.390;2023-09-19T05:11:25;14.38;;;8.68;;
32242;SDS011;18731;42.830;24.390;2023-09-19T05:13:51;12.20;;;8.82;;
32242;SDS011;18731;42.830;24.390;2023-09-19T05:16:18;12.95;;;8.73;;
32242;SDS011;18731;42.830;24.390;2023-09-19T05:18:44;13.75;;;8.77;;
32242;SDS011;18731;42.830;24.390;2023-09-19T05:21:10;14.50;;;8.43;;
32242;SDS011;18731;42.830;24.390;2023-09-19T05:23:37;14.18;;;7.82;;
32242;SDS011;18731;42.830;24.390;2023-09-19T05:26:03;9.07;;;7.28;;
32242;SDS011;18731;42.830;24.390;2023-09-19T05:28:29;14.82;;;8.52;;
32242;SDS011;18731;42.830;24.390;2023-09-19T05:30:55;13.77;;;7.63;;
32242;SDS011;18731;42.830;24.390;2023-09-19T05:33:20;16.88;;;7.53;;
32242;SDS011;18731;42.830;24.390;2023-09-19T05:35:49;10.50;;;6.97;;
32242;SDS011;18731;42.830;24.390;2023-09-19T05:38:15;13.18;;;7.50;;
32242;SDS011;18731;42.830;24.390;2023-09-19T05:40:44;8.95;;;6.97;;
32242;SDS011;18731;42.830;24.390;2023-09-19T05:43:10;12.32;;;6.55;;
32242;SDS011;18731;42.830;24.390;2023-09-19T05:45:36;8.30;;;6.38;;
32242;SDS011;18731;42.830;24.390;2023-09-19T05:48:12;11.80;;;7.15;;
32242;SDS011;18731;42.830;24.390;2023-09-19T05:50:40;16.13;;;7.35;;
32242;SDS011;18731;42.830;24.390;2023-09-19T05:53:06;11.35;;;7.45;;
32242;SDS011;18731;42.830;24.390;2023-09-19T05:55:32;8.73;;;7.28;;
32242;SDS011;18731;42.830;24.390;2023-09-19T05:57:58;11.38;;;6.75;;
32242;SDS011;18731;42.830;24.390;2023-09-19T06:00:24;11.45;;;7.20;;
32242;SDS011;18731;42.830;24.390;2023-09-19T06:02:56;11.35;;;7.00;;
32242;SDS011;18731;42.830;24.390;2023-09-19T06:05:22;9.50;;;6.60;;
32242;SDS011;18731;42.830;24.390;2023-09-19T06:07:52;10.32;;;6.85;;
32242;SDS011;18731;42.830;24.390;2023-09-19T06:10:19;10.32;;;7.00;;
32242;SDS011;18731;42.830;24.390;2023-09-19T06:12:48;15.30;;;7.15;;
32242;SDS011;18731;42.830;24.390;2023-09-19T06:15:15;13.02;;;7.07;;
32242;SDS011;18731;42.830;24.390;2023-09-19T06:17:50;12.88;;;7.50;;
32242;SDS011;18731;42.830;24.390;2023-09-19T06:20:16;12.23;;;6.88;;
32242;SDS011;18731;42.830;24.390;2023-09-19T06:22:43;10.30;;;6.78;;
32242;SDS011;18731;42.830;24.390;2023-09-19T06:25:11;13.32;;;7.05;;
32242;SDS011;18731;42.830;24.390;2023-09-19T06:27:44;14.88;;;8.27;;
32242;SDS011;18731;42.830;24.390;2023-09-19T06:30:11;18.02;;;9.40;;
32242;SDS011;18731;42.830;24.390;2023-09-19T06:32:37;12.40;;;6.03;;
32242;SDS011;18731;42.830;24.390;2023-09-19T06:35:03;10.18;;;6.20;;
32242;SDS011;18731;42.830;24.390;2023-09-19T06:37:32;7.28;;;5.43;;
32242;SDS011;18731;42.830;24.390;2023-09-19T06:39:59;7.18;;;5.40;;
32242;SDS011;18731;42.830;24.390;2023-09-19T06:42:25;14.98;;;5.78;;
32242;SDS011;18731;42.830;24.390;2023-09-19T06:44:53;7.07;;;5.32;;
32242;SDS011;18731;42.830;24.390;2023-09-19T06:47:19;8.68;;;5.82;;
32242;SDS011;18731;42.830;24.390;2023-09-19T06:49:45;8.80;;;5.97;;
32242;SDS011;18731;42.830;24.390;2023-09-19T06:52:11;11.02;;;5.90;;
32242;SDS011;18731;42.830;24.390;2023-09-19T06:54:37;13.45;;;5.63;;
32242;SDS011;18731;42.830;24.390;2023-09-19T06:57:02;12.38;;;4.97;;
32242;SDS011;18731;42.830;24.390;2023-09-19T06:59:28;11.05;;;5.35;;
32242;SDS011;18731;42.830;24.390;2023-09-19T07:01:54;8.00;;;5.22;;
32242;SDS011;18731;42.830;24.390;2023-09-19T07:04:20;8.00;;;5.20;;
32242;SDS011;18731;42.830;24.390;2023-09-19T07:06:52;11.80;;;5.43;;
32242;SDS011;18731;42.830;24.390;2023-09-19T07:09:17;8.75;;;5.40;;
32242;SDS011;18731;42.830;24.390;2023-09-19T07:11:47;8.35;;;5.03;;
32242;SDS011;18731;42.830;24.390;2023-09-19T07:14:13;11.32;;;5.18;;
32242;SDS011;18731;42.830;24.390;2023-09-19T07:16:39;11.80;;;5.65;;
32242;SDS011;18731;42.830;24.390;2023-09-19T07:19:07;6.40;;;5.18;;
32242;SDS011;18731;42.830;24.390;2023-09-19T07:21:33;7.97;;;5.25;;
32242;SDS011;18731;42.830;24.390;2023-09-19T07:24:00;14.88;;;5.55;;
32242;SDS011;18731;42.830;24.390;2023-09-19T07:26:27;10.98;;;4.75;;
32242;SDS011;18731;42.830;24.390;2023-09-19T07:28:53;9.77;;;5.30;;
32242;SDS011;18731;42.830;24.390;2023-09-19T07:31:20;6.90;;;4.80;;
32242;SDS011;18731;42.830;24.390;2023-09-19T07:33:48;13.60;;;5.22;;
32242;SDS011;18731;42.830;24.390;2023-09-19T07:36:14;7.43;;;5.15;;
32242;SDS011;18731;42.830;24.390;2023-09-19T07:38:41;7.35;;;5.00;;
32242;SDS011;18731;42.830;24.390;2023-09-19T07:41:07;11.60;;;5.10;;
32242;SDS011;18731;42.830;24.390;2023-09-19T07:43:36;9.73;;;5.22;;
32242;SDS011;18731;42.830;24.390;2023-09-19T07:46:04;8.93;;;4.88;;
32242;SDS011;18731;42.830;24.390;2023-09-19T07:48:36;14.88;;;5.25;;
32242;SDS011;18731;42.830;24.390;2023-09-19T07:51:04;11.32;;;5.50;;
32242;SDS011;18731;42.830;24.390;2023-09-19T07:53:31;10.63;;;6.07;;
32242;SDS011;18731;42.830;24.390;2023-09-19T07:56:06;8.35;;;5.28;;
32242;SDS011;18731;42.830;24.390;2023-09-19T07:58:33;11.80;;;5.70;;
32242;SDS011;18731;42.830;24.390;2023-09-19T08:01:04;6.65;;;4.97;;
32242;SDS011;18731;42.830;24.390;2023-09-19T08:03:32;10.48;;;4.95;;
32242;SDS011;18731;42.830;24.390;2023-09-19T08:05:58;9.75;;;4.78;;
32242;SDS011;18731;42.830;24.390;2023-09-19T08:08:24;8.18;;;4.50;;
32242;SDS011;18731;42.830;24.390;2023-09-19T08:10:54;13.07;;;5.75;;
32242;SDS011;18731;42.830;24.390;2023-09-19T08:13:24;6.68;;;4.47;;
32242;SDS011;18731;42.830;24.390;2023-09-19T08:15:51;11.05;;;4.80;;
32242;SDS011;18731;42.830;24.390;2023-09-19T08:18:21;9.65;;;4.13;;
32242;SDS011;18731;42.830;24.390;2023-09-19T08:20:51;8.45;;;4.10;;
32242;SDS011;18731;42.830;24.390;2023-09-19T08:23:18;7.00;;;4.85;;
32242;SDS011;18731;42.830;24.390;2023-09-19T08:25:45;7.70;;;4.93;;
32242;SDS011;18731;42.830;24.390;2023-09-19T08:28:12;5.05;;;4.55;;
32242;SDS011;18731;42.830;24.390;2023-09-19T08:30:39;7.32;;;4.20;;
32242;SDS011;18731;42.830;24.390;2023-09-19T08:33:06;11.65;;;4.30;;
32242;SDS011;18731;42.830;24.390;2023-09-19T08:35:33;6.03;;;4.15;;
32242;SDS011;18731;42.830;24.390;2023-09-19T08:37:59;6.53;;;3.63;;
32242;SDS011;18731;42.830;24.390;2023-09-19T08:40:32;7.35;;;3.80;;
32242;SDS011;18731;42.830;24.390;2023-09-19T08:43:04;5.70;;;4.85;;
32242;SDS011;18731;42.830;24.390;2023-09-19T08:45:30;6.50;;;4.78;;
32242;SDS011;18731;42.830;24.390;2023-09-19T08:48:05;6.78;;;4.30;;
32242;SDS011;18731;42.830;24.390;2023-09-19T08:56:18;9.07;;;4.22;;
32242;SDS011;18731;42.830;24.390;2023-09-19T08:58:48;6.13;;;3.30;;
32242;SDS011;18731;42.830;24.390;2023-09-19T09:01:22;7.15;;;3.50;;
32242;SDS011;18731;42.830;24.390;2023-09-19T09:03:53;8.75;;;3.80;;
32242;SDS011;18731;42.830;24.390;2023-09-19T09:06:20;5.97;;;3.55;;
32242;SDS011;18731;42.830;24.390;2023-09-19T09:08:46;8.20;;;3.75;;
32242;SDS011;18731;42.830;24.390;2023-09-19T09:11:13;4.60;;;3.33;;
32242;SDS011;18731;42.830;24.390;2023-09-19T09:13:41;7.30;;;3.72;;
32242;SDS011;18731;42.830;24.390;2023-09-19T09:16:07;4.50;;;3.35;;
32242;SDS011;18731;42.830;24.390;2023-09-19T09:18:35;5.07;;;3.05;;
32242;SDS011;18731;42.830;24.390;2023-09-19T09:21:01;6.32;;;2.83;;
32242;SDS011;18731;42.830;24.390;2023-09-19T09:23:27;8.10;;;2.50;;
32242;SDS011;18731;42.830;24.390;2023-09-19T09:25:57;6.50;;;2.83;;
32242;SDS011;18731;42.830;24.390;2023-09-19T09:28:33;4.03;;;2.58;;
32242;SDS011;18731;42.830;24.390;2023-09-19T09:31:01;2.38;;;2.03;;
32242;SDS011;18731;42.830;24.390;2023-09-19T09:33:34;2.05;;;1.60;;
32242;SDS011;18731;42.830;24.390;2023-09-19T09:36:01;3.15;;;1.77;;
32242;SDS011;18731;42.830;24.390;2023-09-19T09:38:50;2.22;;;1.40;;
32242;SDS011;18731;42.830;24.390;2023-09-19T09:41:15;2.25;;;1.65;;
32242;SDS011;18731;42.830;24.390;2023-09-19T09:43:53;2.03;;;1.42;;
32242;SDS011;18731;42.830;24.390;2023-09-19T09:46:20;2.95;;;1.60;;
32242;SDS011;18731;42.830;24.390;2023-09-19T09:49:02;2.13;;;1.90;;
32242;SDS011;18731;42.830;24.390;2023-09-19T09:51:51;6.93;;;1.90;;
32242;SDS011;18731;42.830;24.390;2023-09-19T09:54:26;1.55;;;1.40;;
32242;SDS011;18731;42.830;24.390;2023-09-19T09:56:59;1.63;;;1.50;;
32242;SDS011;18731;42.830;24.390;2023-09-19T09:59:59;1.85;;;1.50;;
32242;SDS011;18731;42.830;24.390;2023-09-19T10:02:41;3.83;;;2.00;;
32242;SDS011;18731;42.830;24.390;2023-09-19T10:05:17;4.78;;;1.60;;
32242;SDS011;18731;42.830;24.390;2023-09-19T10:07:54;4.28;;;1.80;;
32242;SDS011;18731;42.830;24.390;2023-09-19T10:10:37;3.30;;;1.50;;
32242;SDS011;18731;42.830;24.390;2023-09-19T10:13:07;4.45;;;1.45;;
32242;SDS011;18731;42.830;24.390;2023-09-19T10:15:37;6.72;;;1.70;;
32242;SDS011;18731;42.830;24.390;2023-09-19T10:18:06;3.10;;;2.47;;
32242;SDS011;18731;42.830;24.390;2023-09-19T10:20:36;1.60;;;1.50;;
32242;SDS011;18731;42.830;24.390;2023-09-19T10:23:08;4.82;;;2.20;;
32242;SDS011;18731;42.830;24.390;2023-09-19T10:25:38;3.00;;;2.10;;
32242;SDS011;18731;42.830;24.390;2023-09-19T10:28:09;6.75;;;1.75;;
32242;SDS011;18731;42.830;24.390;2023-09-19T10:30:42;3.53;;;2.42;;
32242;SDS011;18731;42.830;24.390;2023-09-19T10:33:11;2.88;;;2.38;;
32242;SDS011;18731;42.830;24.390;2023-09-19T10:35:39;6.53;;;2.55;;
32242;SDS011;18731;42.830;24.390;2023-09-19T10:38:09;11.52;;;2.55;;
32242;SDS011;18731;42.830;24.390;2023-09-19T10:40:36;3.30;;;2.20;;
32242;SDS011;18731;42.830;24.390;2023-09-19T10:43:11;5.10;;;2.47;;
32242;SDS011;18731;42.830;24.390;2023-09-19T10:45:38;6.20;;;2.40;;
32242;SDS011;18731;42.830;24.390;2023-09-19T10:48:05;4.05;;;2.28;;
32242;SDS011;18731;42.830;24.390;2023-09-19T10:53:41;4.10;;;2.70;;
32242;SDS011;18731;42.830;24.390;2023-09-19T10:56:24;2.35;;;2.00;;
32242;SDS011;18731;42.830;24.390;2023-09-19T10:59:10;5.20;;;3.13;;
32242;SDS011;18731;42.830;24.390;2023-09-19T11:01:54;5.72;;;3.20;;
32242;SDS011;18731;42.830;24.390;2023-09-19T11:04:24;3.92;;;2.70;;
32242;SDS011;18731;42.830;24.390;2023-09-19T11:09:45;5.55;;;3.05;;
32242;SDS011;18731;42.830;24.390;2023-09-19T11:15:02;5.30;;;2.75;;
32242;SDS011;18731;42.830;24.390;2023-09-19T11:28:28;3.20;;;2.65;;
32242;SDS011;18731;42.830;24.390;2023-09-19T11:30:48;4.85;;;2.40;;
32242;SDS011;18731;42.830;24.390;2023-09-19T11:33:24;2.60;;;2.33;;
32242;SDS011;18731;42.830;24.390;2023-09-19T11:36:06;5.00;;;2.60;;
32242;SDS011;18731;42.830;24.390;2023-09-19T11:43:51;3.13;;;2.50;;
32242;SDS011;18731;42.830;24.390;2023-09-19T11:46:17;3.50;;;2.38;;
32242;SDS011;18731;42.830;24.390;2023-09-19T11:48:50;5.07;;;2.50;;
32242;SDS011;18731;42.830;24.390;2023-09-19T11:51:39;2.63;;;2.40;;
32242;SDS011;18731;42.830;24.390;2023-09-19T11:54:16;3.50;;;2.47;;
32242;SDS011;18731;42.830;24.390;2023-09-19T11:56:53;10.77;;;2.63;;
32242;SDS011;18731;42.830;24.390;2023-09-19T11:59:23;6.30;;;2.50;;
32242;SDS011;18731;42.830;24.390;2023-09-19T12:01:54;5.65;;;2.60;;
32242;SDS011;18731;42.830;24.390;2023-09-19T12:04:40;7.22;;;2.75;;
32242;SDS011;18731;42.830;24.390;2023-09-19T12:07:12;2.60;;;2.35;;
32242;SDS011;18731;42.830;24.390;2023-09-19T12:09:45;8.48;;;2.85;;
32242;SDS011;18731;42.830;24.390;2023-09-19T12:12:26;7.53;;;2.58;;
32242;SDS011;18731;42.830;24.390;2023-09-19T12:14:52;5.82;;;2.80;;
32242;SDS011;18731;42.830;24.390;2023-09-19T12:17:20;3.28;;;2.63;;
32242;SDS011;18731;42.830;24.390;2023-09-19T12:19:53;7.50;;;2.67;;
32242;SDS011;18731;42.830;24.390;2023-09-19T12:22:22;10.75;;;2.97;;
32242;SDS011;18731;42.830;24.390;2023-09-19T12:24:48;6.22;;;2.60;;
32242;SDS011;18731;42.830;24.390;2023-09-19T12:27:15;5.55;;;2.83;;
32242;SDS011;18731;42.830;24.390;2023-09-19T12:29:42;4.28;;;2.83;;
32242;SDS011;18731;42.830;24.390;2023-09-19T12:32:09;4.70;;;2.58;;
32242;SDS011;18731;42.830;24.390;2023-09-19T12:34:35;7.50;;;2.78;;
32242;SDS011;18731;42.830;24.390;2023-09-19T12:39:51;3.63;;;2.50;;
32242;SDS011;18731;42.830;24.390;2023-09-19T12:42:19;10.35;;;2.80;;
32242;SDS011;18731;42.830;24.390;2023-09-19T12:44:52;6.05;;;2.90;;
32242;SDS011;18731;42.830;24.390;2023-09-19T12:47:22;5.25;;;3.00;;
32242;SDS011;18731;42.830;24.390;2023-09-19T12:52:48;3.63;;;2.53;;
32242;SDS011;18731;42.830;24.390;2023-09-19T12:55:21;3.90;;;2.45;;
32242;SDS011;18731;42.830;24.390;2023-09-19T12:58:21;5.50;;;2.80;;
32242;SDS011;18731;42.830;24.390;2023-09-19T13:00:42;6.68;;;3.20;;
32242;SDS011;18731;42.830;24.390;2023-09-19T13:05:49;7.20;;;2.97;;
32242;SDS011;18731;42.830;24.390;2023-09-19T13:08:17;4.72;;;2.80;;
32242;SDS011;18731;42.830;24.390;2023-09-19T13:17:04;5.80;;;3.30;;
32242;SDS011;18731;42.830;24.390;2023-09-19T13:25:14;7.72;;;2.88;;
32242;SDS011;18731;42.830;24.390;2023-09-19T13:27:49;7.13;;;3.75;;
32242;SDS011;18731;42.830;24.390;2023-09-19T13:30:21;6.43;;;3.25;;
32242;SDS011;18731;42.830;24.390;2023-09-19T13:32:50;4.03;;;3.50;;
32242;SDS011;18731;42.830;24.390;2023-09-19T13:35:18;6.15;;;3.30;;
32242;SDS011;18731;42.830;24.390;2023-09-19T13:37:46;16.33;;;4.30;;
32242;SDS011;18731;42.830;24.390;2023-09-19T13:40:14;7.85;;;3.58;;
32242;SDS011;18731;42.830;24.390;2023-09-19T13:42:41;5.03;;;3.33;;
32242;SDS011;18731;42.830;24.390;2023-09-19T13:45:07;9.77;;;3.60;;
32242;SDS011;18731;42.830;24.390;2023-09-19T13:47:37;4.57;;;3.30;;
32242;SDS011;18731;42.830;24.390;2023-09-19T13:50:03;6.65;;;3.72;;
32242;SDS011;18731;42.830;24.390;2023-09-19T13:52:30;6.07;;;3.47;;
32242;SDS011;18731;42.830;24.390;2023-09-19T13:54:57;9.23;;;3.97;;
32242;SDS011;18731;42.830;24.390;2023-09-19T13:57:23;9.65;;;4.10;;
32242;SDS011;18731;42.830;24.390;2023-09-19T13:59:51;11.35;;;3.78;;
32242;SDS011;18731;42.830;24.390;2023-09-19T14:02:17;13.32;;;3.65;;
32242;SDS011;18731;42.830;24.390;2023-09-19T14:04:56;8.73;;;3.95;;
32242;SDS011;18731;42.830;24.390;2023-09-19T14:07:23;6.13;;;3.80;;
32242;SDS011;18731;42.830;24.390;2023-09-19T14:09:49;8.77;;;3.55;;
32242;SDS011;18731;42.830;24.390;2023-09-19T14:12:14;8.70;;;3.85;;
32242;SDS011;18731;42.830;24.390;2023-09-19T14:14:40;7.10;;;3.65;;
32242;SDS011;18731;42.830;24.390;2023-09-19T14:17:07;9.38;;;3.60;;
32242;SDS011;18731;42.830;24.390;2023-09-19T14:19:34;7.47;;;3.30;;
32242;SDS011;18731;42.830;24.390;2023-09-19T14:22:01;10.38;;;3.40;;
32242;SDS011;18731;42.830;24.390;2023-09-19T14:24:32;10.88;;;3.63;;
32242;SDS011;18731;42.830;24.390;2023-09-19T14:26:58;13.60;;;3.60;;
32242;SDS011;18731;42.830;24.390;2023-09-19T14:29:24;7.43;;;3.40;;
32242;SDS011;18731;42.830;24.390;2023-09-19T14:31:50;12.23;;;3.53;;
32242;SDS011;18731;42.830;24.390;2023-09-19T14:34:17;12.75;;;4.60;;
32242;SDS011;18731;42.830;24.390;2023-09-19T14:36:44;12.32;;;3.58;;
32242;SDS011;18731;42.830;24.390;2023-09-19T14:39:10;6.53;;;3.60;;
32242;SDS011;18731;42.830;24.390;2023-09-19T14:41:37;7.00;;;3.45;;
32242;SDS011;18731;42.830;24.390;2023-09-19T14:44:03;12.10;;;3.60;;
32242;SDS011;18731;42.830;24.390;2023-09-19T14:46:30;9.23;;;3.47;;
32242;SDS011;18731;42.830;24.390;2023-09-19T14:48:56;5.00;;;3.28;;
32242;SDS011;18731;42.830;24.390;2023-09-19T14:51:28;12.57;;;3.50;;
32242;SDS011;18731;42.830;24.390;2023-09-19T14:53:54;10.35;;;4.28;;
32242;SDS011;18731;42.830;24.390;2023-09-19T14:56:21;8.20;;;3.30;;
32242;SDS011;18731;42.830;24.390;2023-09-19T14:58:49;5.22;;;3.28;;
32242;SDS011;18731;42.830;24.390;2023-09-19T15:01:15;9.35;;;3.80;;
32242;SDS011;18731;42.830;24.390;2023-09-19T15:03:41;10.98;;;3.95;;
32242;SDS011;18731;42.830;24.390;2023-09-19T15:06:12;14.68;;;4.05;;
32242;SDS011;18731;42.830;24.390;2023-09-19T15:08:42;13.63;;;3.97;;
32242;SDS011;18731;42.830;24.390;2023-09-19T15:11:13;9.77;;;4.00;;
32242;SDS011;18731;42.830;24.390;2023-09-19T15:13:42;10.38;;;3.67;;
32242;SDS011;18731;42.830;24.390;2023-09-19T15:16:09;7.55;;;3.65;;
32242;SDS011;18731;42.830;24.390;2023-09-19T15:18:36;7.93;;;3.60;;
32242;SDS011;18731;42.830;24.390;2023-09-19T15:21:04;14.07;;;4.40;;
32242;SDS011;18731;42.830;24.390;2023-09-19T15:23:31;13.07;;;4.18;;
32242;SDS011;18731;42.830;24.390;2023-09-19T15:26:00;10.15;;;4.15;;
32242;SDS011;18731;42.830;24.390;2023-09-19T15:28:27;14.35;;;4.43;;
32242;SDS011;18731;42.830;24.390;2023-09-19T15:31:12;14.82;;;4.20;;
32242;SDS011;18731;42.830;24.390;2023-09-19T15:33:38;16.73;;;4.35;;
32242;SDS011;18731;42.830;24.390;2023-09-19T15:36:11;10.30;;;3.72;;
32242;SDS011;18731;42.830;24.390;2023-09-19T15:41:21;10.00;;;3.83;;
32242;SDS011;18731;42.830;24.390;2023-09-19T15:43:47;10.20;;;4.13;;
32242;SDS011;18731;42.830;24.390;2023-09-19T15:46:13;17.33;;;4.45;;
32242;SDS011;18731;42.830;24.390;2023-09-19T15:48:41;8.95;;;4.30;;
32242;SDS011;18731;42.830;24.390;2023-09-19T15:51:08;18.17;;;4.57;;
32242;SDS011;18731;42.830;24.390;2023-09-19T15:53:49;7.43;;;4.32;;
32242;SDS011;18731;42.830;24.390;2023-09-19T15:56:17;17.25;;;5.18;;
32242;SDS011;18731;42.830;24.390;2023-09-19T15:58:47;10.95;;;4.30;;
32242;SDS011;18731;42.830;24.390;2023-09-19T16:01:14;15.52;;;4.38;;
32242;SDS011;18731;42.830;24.390;2023-09-19T16:03:43;9.40;;;4.60;;
32242;SDS011;18731;42.830;24.390;2023-09-19T16:06:15;13.98;;;4.35;;
32242;SDS011;18731;42.830;24.390;2023-09-19T16:08:46;8.85;;;4.93;;
32242;SDS011;18731;42.830;24.390;2023-09-19T16:11:13;9.00;;;4.47;;
32242;SDS011;18731;42.830;24.390;2023-09-19T16:13:40;11.95;;;4.50;;
32242;SDS011;18731;42.830;24.390;2023-09-19T16:16:11;7.82;;;4.50;;
32242;SDS011;18731;42.830;24.390;2023-09-19T16:18:50;9.63;;;4.50;;
32242;SDS011;18731;42.830;24.390;2023-09-19T16:21:19;11.85;;;4.22;;
32242;SDS011;18731;42.830;24.390;2023-09-19T16:23:48;14.32;;;4.35;;
32242;SDS011;18731;42.830;24.390;2023-09-19T16:26:15;9.43;;;4.32;;
32242;SDS011;18731;42.830;24.390;2023-09-19T16:28:43;10.27;;;5.18;;
32242;SDS011;18731;42.830;24.390;2023-09-19T16:31:10;9.27;;;4.38;;
32242;SDS011;18731;42.830;24.390;2023-09-19T16:33:37;12.73;;;4.90;;
32242;SDS011;18731;42.830;24.390;2023-09-19T16:36:16;12.13;;;5.22;;
32242;SDS011;18731;42.830;24.390;2023-09-19T16:38:44;9.25;;;4.78;;
32242;SDS011;18731;42.830;24.390;2023-09-19T16:41:13;14.05;;;4.90;;
32242;SDS011;18731;42.830;24.390;2023-09-19T16:43:39;10.93;;;4.80;;
32242;SDS011;18731;42.830;24.390;2023-09-19T16:46:09;12.70;;;4.82;;
32242;SDS011;18731;42.830;24.390;2023-09-19T16:48:40;13.13;;;4.80;;
32242;SDS011;18731;42.830;24.390;2023-09-19T16:51:08;12.00;;;4.43;;
32242;SDS011;18731;42.830;24.390;2023-09-19T16:53:35;16.23;;;4.97;;
32242;SDS011;18731;42.830;24.390;2023-09-19T16:58:34;7.95;;;4.82;;
32242;SDS011;18731;42.830;24.390;2023-09-19T17:01:00;12.15;;;5.05;;
32242;SDS011;18731;42.830;24.390;2023-09-19T17:03:27;14.55;;;5.25;;
32242;SDS011;18731;42.830;24.390;2023-09-19T17:05:57;17.90;;;4.95;;
32242;SDS011;18731;42.830;24.390;2023-09-19T17:08:24;8.20;;;4.75;;
32242;SDS011;18731;42.830;24.390;2023-09-19T17:10:51;13.82;;;5.82;;
32242;SDS011;18731;42.830;24.390;2023-09-19T17:13:24;15.55;;;5.25;;
32242;SDS011;18731;42.830;24.390;2023-09-19T17:15:58;7.55;;;4.28;;
32242;SDS011;18731;42.830;24.390;2023-09-19T17:18:50;10.43;;;4.72;;
32242;SDS011;18731;42.830;24.390;2023-09-19T17:21:18;15.00;;;4.45;;
32242;SDS011;18731;42.830;24.390;2023-09-19T17:23:44;12.38;;;5.07;;
32242;SDS011;18731;42.830;24.390;2023-09-19T17:26:10;13.82;;;5.15;;
32242;SDS011;18731;42.830;24.390;2023-09-19T17:28:43;17.75;;;5.10;;
32242;SDS011;18731;42.830;24.390;2023-09-19T17:31:10;12.38;;;4.50;;
32242;SDS011;18731;42.830;24.390;2023-09-19T17:33:43;10.98;;;4.82;;
32242;SDS011;18731;42.830;24.390;2023-09-19T17:36:11;11.40;;;5.10;;
32242;SDS011;18731;42.830;24.390;2023-09-19T17:38:42;11.30;;;6.22;;
32242;SDS011;18731;42.830;24.390;2023-09-19T17:41:09;16.10;;;6.50;;
32242;SDS011;18731;42.830;24.390;2023-09-19T17:43:37;13.10;;;6.35;;
32242;SDS011;18731;42.830;24.390;2023-09-19T17:46:13;23.13;;;6.65;;
32242;SDS011;18731;42.830;24.390;2023-09-19T17:48:40;15.65;;;6.38;;
32242;SDS011;18731;42.830;24.390;2023-09-19T17:51:08;11.27;;;5.88;;
32242;SDS011;18731;42.830;24.390;2023-09-19T17:53:35;12.57;;;6.50;;
32242;SDS011;18731;42.830;24.390;2023-09-19T17:56:02;15.95;;;5.88;;
32242;SDS011;18731;42.830;24.390;2023-09-19T17:58:29;12.98;;;5.65;;
32242;SDS011;18731;42.830;24.390;2023-09-19T18:00:56;7.65;;;5.53;;
32242;SDS011;18731;42.830;24.390;2023-09-19T18:03:22;15.07;;;5.63;;
32242;SDS011;18731;42.830;24.390;2023-09-19T18:05:52;17.40;;;5.45;;
32242;SDS011;18731;42.830;24.390;2023-09-19T18:08:18;13.10;;;5.25;;
32242;SDS011;18731;42.830;24.390;2023-09-19T18:10:49;10.65;;;5.13;;
32242;SDS011;18731;42.830;24.390;2023-09-19T18:13:14;9.00;;;4.57;;
32242;SDS011;18731;42.830;24.390;2023-09-19T18:15:40;12.73;;;4.93;;
32242;SDS011;18731;42.830;24.390;2023-09-19T18:18:06;11.73;;;6.07;;
32242;SDS011;18731;42.830;24.390;2023-09-19T18:20:37;10.98;;;5.93;;
32242;SDS011;18731;42.830;24.390;2023-09-19T18:23:08;9.45;;;5.63;;
32242;SDS011;18731;42.830;24.390;2023-09-19T18:25:34;9.48;;;5.30;;
32242;SDS011;18731;42.830;24.390;2023-09-19T18:28:01;7.90;;;5.10;;
32242;SDS011;18731;42.830;24.390;2023-09-19T18:30:29;11.05;;;5.30;;
32242;SDS011;18731;42.830;24.390;2023-09-19T18:32:56;12.88;;;5.35;;
32242;SDS011;18731;42.830;24.390;2023-09-19T18:35:24;14.32;;;5.68;;